.
WxDataArchive / Data Records for 2007-10-13
2007-10-12 October 2007 2007-10-14

Data Records for Saturday, 13 October 2007

Time	Temp	Chill	HIndex	Humid	Dewpt	 Wind 	HiWind	WindDir	Rain 	Barom 
-----	----	-----	------	-----	-----	------	------	-------	-----	----- 
00:00	38.2	38.2	38.2	93	36.4	0	0	---	0.00	29.964 
00:05	38.2	38.2	38.2	93	36.4	0	0	---	0.00	29.962 
00:10	38.2	38.2	38.2	93	36.4	0	0	---	0.00	29.964 
00:15	38.2	38.2	38.2	94	36.6	0	0	---	0.00	29.965 
00:20	38.2	38.2	38.2	94	36.6	0	0	---	0.00	29.963 
00:25	38.0	38.0	38.0	94	36.4	0	0	---	0.00	29.961 
00:30	38.0	38.0	38.0	94	36.4	0	0	---	0.00	29.960 
00:35	37.9	37.9	37.9	94	36.3	0	0	---	0.00	29.961 
00:40	37.8	37.8	37.8	94	36.2	0	0	---	0.00	29.962 
00:45	37.8	37.8	37.8	94	36.2	0	0	---	0.00	29.964 
00:50	37.6	37.6	37.6	94	36.0	0	0	---	0.00	29.965 
00:55	37.5	37.5	37.5	94	35.9	0	0	---	0.00	29.966 
01:00	37.3	37.3	37.3	94	35.7	0	0	---	0.00	29.969 
01:05	37.2	37.2	37.2	94	35.6	0	0	---	0.00	29.968 
01:10	37.0	37.0	37.0	94	35.4	0	0	---	0.00	29.967 
01:15	37.0	37.0	37.0	94	35.4	0	0	---	0.00	29.968 
01:20	36.9	36.9	36.9	94	35.3	0	0	---	0.00	29.971 
01:25	36.9	36.9	36.9	94	35.3	0	0	---	0.00	29.971 
01:30	36.8	36.8	36.8	94	35.2	0	0	---	0.00	29.971 
01:35	36.8	36.8	36.8	94	35.2	0	0	---	0.00	29.969 
01:40	36.8	36.8	36.8	94	35.2	0	0	---	0.00	29.967 
01:45	36.8	36.8	36.8	94	35.2	0	0	---	0.00	29.967 
01:50	36.9	36.9	36.9	95	35.6	0	0	---	0.00	29.966 
01:55	36.9	36.9	36.9	95	35.6	0	0	---	0.00	29.969 
02:00	36.8	36.8	36.8	95	35.5	0	0	---	0.00	29.970 
02:05	36.6	36.6	36.6	95	35.3	0	0	---	0.00	29.972 
02:10	36.6	36.6	36.6	95	35.3	0	0	---	0.00	29.972 
02:15	36.5	36.5	36.5	95	35.2	0	0	---	0.00	29.972 
02:20	36.5	36.5	36.5	95	35.2	0	0	---	0.00	29.970 
02:25	36.3	36.3	36.3	95	35.0	0	0	---	0.00	29.970 
02:30	36.3	36.3	36.3	95	35.0	0	0	---	0.00	29.970 
02:35	36.3	36.3	36.3	95	35.0	0	0	---	0.00	29.969 
02:40	36.2	36.2	36.2	95	34.9	0	0	---	0.00	29.969 
02:45	36.2	36.2	36.2	95	34.9	0	0	---	0.00	29.966 
02:50	36.0	36.0	36.0	95	34.7	0	0	---	0.00	29.965 
02:55	35.9	35.9	35.9	95	34.6	0	0	---	0.00	29.967 
03:00	35.9	35.9	35.9	95	34.6	0	0	---	0.00	29.963 
03:05	35.9	35.9	35.9	95	34.6	0	0	---	0.00	29.966 
03:10	35.8	35.8	35.8	95	34.5	0	0	---	0.00	29.971 
03:15	35.8	35.8	35.8	95	34.5	0	0	---	0.00	29.972 
03:20	35.8	35.8	35.8	95	34.5	0	0	---	0.00	29.973 
03:25	35.8	35.8	35.8	95	34.5	0	0	---	0.00	29.973 
03:30	35.8	35.8	35.8	95	34.5	0	0	---	0.00	29.971 
03:35	35.6	35.6	35.6	95	34.3	0	0	---	0.00	29.967 
03:40	35.5	35.5	35.5	95	34.2	0	0	---	0.00	29.969 
03:45	35.5	35.5	35.5	95	34.2	0	0	---	0.00	29.972 
03:50	35.3	35.3	35.3	95	34.0	0	0	---	0.00	29.973 
03:55	35.3	35.3	35.3	95	34.0	0	0	---	0.00	29.974 
04:00	35.3	35.3	35.3	95	34.0	0	0	---	0.00	29.970 
04:05	35.2	35.2	35.2	95	33.9	0	0	---	0.00	29.970 
04:10	35.2	35.2	35.2	95	33.9	0	0	---	0.00	29.971 
04:15	35.2	35.2	35.2	95	33.9	0	0	---	0.00	29.975 
04:20	35.0	35.0	35.0	95	33.7	0	0	---	0.00	29.976 
04:25	35.0	35.0	35.0	95	33.7	0	0	---	0.00	29.978 
04:30	35.0	35.0	35.0	95	33.7	0	0	---	0.00	29.980 
04:35	35.2	35.2	35.2	96	34.2	0	0	---	0.00	29.981 
04:40	35.2	35.2	35.2	96	34.2	0	0	---	0.00	29.984 
04:45	35.2	35.2	35.2	96	34.2	0	0	---	0.00	29.984 
04:50	35.2	35.2	35.2	96	34.2	0	0	---	0.00	29.986 
04:55	35.2	35.2	35.2	96	34.2	0	0	---	0.00	29.988 
05:00	35.2	35.2	35.2	96	34.2	0	0	---	0.00	29.988 
05:05	35.3	35.3	35.3	96	34.3	0	0	---	0.00	29.992 
05:10	35.3	35.3	35.3	96	34.3	0	0	---	0.00	29.992 
05:15	35.3	35.3	35.3	96	34.3	0	0	---	0.00	29.994 
05:20	35.3	35.3	35.3	96	34.3	0	0	---	0.00	29.994 
05:25	35.5	35.5	35.5	96	34.5	0	0	---	0.00	29.997 
05:30	35.5	35.5	35.5	96	34.5	0	0	---	0.00	29.996 
05:35	35.6	35.6	35.6	96	34.6	0	0	---	0.00	30.001 
05:40	35.8	35.8	35.8	96	34.8	0	0	---	0.00	30.005 
05:45	35.8	35.8	35.8	96	34.8	0	0	---	0.00	30.005 
05:50	35.8	35.8	35.8	96	34.8	0	0	---	0.00	30.006 
05:55	35.8	35.8	35.8	96	34.8	0	0	---	0.00	30.007 
06:00	35.8	35.8	35.8	96	34.8	0	0	---	0.00	30.007 
06:05	35.8	35.8	35.8	96	34.8	0	0	---	0.00	30.008 
06:10	35.6	35.6	35.6	96	34.6	0	0	---	0.00	30.009 
06:15	35.6	35.6	35.6	96	34.6	0	0	---	0.00	30.008 
06:20	35.6	35.6	35.6	96	34.6	0	0	---	0.00	30.007 
06:25	35.6	35.6	35.6	96	34.6	0	0	---	0.00	30.008 
06:30	35.6	35.6	35.6	96	34.6	0	0	---	0.00	30.009 
06:35	35.6	35.6	35.6	96	34.6	0	0	---	0.00	30.009 
06:40	35.5	35.5	35.5	96	34.5	0	0	---	0.00	30.009 
06:45	35.6	35.6	35.6	96	34.6	0	0	---	0.00	30.010 
06:50	35.6	35.6	35.6	96	34.6	0	0	---	0.00	30.012 
06:55	35.6	35.6	35.6	96	34.6	0	0	---	0.00	30.013 
07:00	35.8	35.8	35.8	96	34.8	0	0	---	0.00	30.015 
07:05	35.8	35.8	35.8	96	34.8	0	0	---	0.00	30.021 
07:10	35.9	35.9	35.9	96	34.9	0	0	---	0.00	30.023 
07:15	36.2	36.2	36.2	96	35.2	0	0	---	0.00	30.026 
07:20	36.8	36.8	36.8	96	35.8	0	0	---	0.00	30.027 
07:25	37.0	37.0	37.0	97	36.2	0	0	---	0.00	30.025 
07:30	37.6	37.6	37.6	97	36.8	0	0	---	0.00	30.027 
07:35	38.2	38.2	38.2	97	37.4	0	0	---	0.00	30.028 
07:40	38.9	38.9	38.9	97	38.1	0	1	292	0.00	30.027 
07:45	39.5	39.5	39.5	97	38.7	0	1	292	0.00	30.026 
07:50	39.9	39.9	39.9	97	39.1	0	1	292	0.00	30.026 
07:55	40.2	40.2	40.2	97	39.4	0	1	292	0.00	30.027 
08:00	40.5	40.5	40.5	97	39.7	0	0	---	0.00	30.027 
08:05	40.8	40.8	40.8	97	40.0	0	0	---	0.00	30.029 
08:10	41.1	41.1	41.1	97	40.3	0	1	292	0.00	30.033 
08:15	41.5	41.5	41.5	97	40.7	0	1	292	0.00	30.031 
08:20	41.8	41.8	41.8	97	41.0	0	1	270	0.00	30.032 
08:25	42.2	42.2	42.2	97	41.4	0	1	270	0.00	30.030 
08:30	42.8	42.8	42.8	97	42.0	0	2	270	0.00	30.026 
08:35	43.2	43.2	43.2	97	42.4	0	1	270	0.00	30.026 
08:40	43.8	43.8	43.8	97	43.0	0	1	270	0.00	30.025 
08:45	44.5	44.5	44.5	96	43.4	0	1	248	0.00	30.025 
08:50	45.2	45.2	45.2	94	43.6	1	3	248	0.00	30.024 
08:55	46.2	46.2	46.2	86	42.2	1	3	248	0.00	30.022 
09:00	47.4	47.4	47.4	83	42.5	0	3	225	0.00	30.019 
09:05	48.2	48.2	48.2	78	41.7	0	3	225	0.00	30.021 
09:10	48.9	48.9	48.9	73	40.6	1	5	248	0.00	30.020 
09:15	49.9	49.9	49.9	70	40.5	0	2	270	0.00	30.016 
09:20	50.7	50.7	50.7	69	40.9	1	3	248	0.00	30.013 
09:25	51.3	51.3	51.3	66	40.3	1	3	248	0.00	30.006 
09:30	52.0	52.0	52.0	64	40.2	0	3	248	0.00	30.003 
09:35	52.5	52.5	52.5	62	39.9	0	2	248	0.00	30.003 
09:40	52.9	52.9	52.9	62	40.2	0	2	248	0.00	30.004 
09:45	53.5	53.5	53.5	61	40.4	0	2	338	0.00	30.003 
09:50	53.9	53.9	53.9	59	39.9	1	2	270	0.00	30.002 
09:55	54.1	54.1	54.1	57	39.2	1	3	270	0.00	30.003 
10:00	54.2	54.2	54.2	58	39.7	1	4	248	0.00	30.011 
10:05	54.7	54.7	54.7	57	39.8	1	3	270	0.00	30.012 
10:10	55.0	55.0	55.0	57	40.0	1	4	248	0.00	30.017 
10:15	55.3	55.3	55.3	55	39.4	1	2	248	0.00	30.019 
10:20	55.3	55.3	55.3	55	39.4	1	3	248	0.00	30.023 
10:25	55.0	55.0	55.0	57	40.0	1	3	248	0.00	30.028 
10:30	54.8	54.8	54.8	56	39.4	1	3	248	0.00	30.028 
10:35	54.8	54.8	54.8	56	39.4	1	3	248	0.00	30.022 
10:40	55.0	55.0	55.0	56	39.6	0	4	248	0.00	30.019 
10:45	55.0	55.0	55.0	56	39.6	0	2	248	0.00	30.019 
10:50	55.0	55.0	55.0	56	39.6	1	2	248	0.00	30.019 
10:55	55.0	55.0	55.0	57	40.0	0	2	248	0.00	30.018 
11:00	55.0	55.0	55.0	56	39.6	0	2	248	0.00	30.021 
11:05	55.0	55.0	55.0	56	39.6	1	3	248	0.00	30.024 
11:10	55.0	55.0	55.0	56	39.6	1	2	248	0.00	30.029 
11:15	55.0	55.0	55.0	58	40.5	0	3	270	0.00	30.031 
11:20	55.3	55.3	55.3	57	40.3	0	2	248	0.00	30.031 
11:25	55.4	55.4	55.4	55	39.5	1	3	248	0.00	30.033 
11:30	55.3	55.3	55.3	56	39.9	1	4	248	0.00	30.033 
11:35	55.3	55.3	55.3	55	39.4	1	3	248	0.00	30.033 
11:40	55.4	55.4	55.4	55	39.5	1	3	248	0.00	30.030 
11:45	55.6	55.6	55.6	54	39.2	1	4	248	0.00	30.026 
11:50	55.6	55.6	55.6	55	39.7	1	2	248	0.00	30.023 
11:55	56.0	56.0	56.0	56	40.5	0	2	248	0.00	30.019 
12:00	56.6	56.6	56.6	54	40.1	1	3	248	0.00	30.020 
12:05	57.2	57.2	57.2	54	40.7	1	3	248	0.00	30.019 
12:10	57.3	57.3	57.3	52	39.8	1	5	248	0.00	30.020 
12:15	57.3	57.3	57.3	53	40.3	1	3	248	0.00	30.019 
12:20	57.3	57.3	57.3	50	38.8	1	3	248	0.00	30.017 
12:25	57.0	57.0	57.0	51	39.1	1	2	248	0.00	30.015 
12:30	57.2	57.2	57.2	52	39.7	1	2	292	0.00	30.011 
12:35	57.6	57.6	57.6	50	39.1	1	3	248	0.00	30.011 
12:40	57.8	57.8	57.8	50	39.3	0	2	248	0.00	30.005 
12:45	57.8	57.8	57.8	51	39.8	1	4	248	0.00	30.003 
12:50	57.8	57.8	57.8	50	39.3	1	3	248	0.00	30.002 
12:55	58.0	58.0	58.0	50	39.5	1	4	248	0.00	30.002 
13:00	58.1	58.1	58.1	49	39.0	2	3	248	0.00	30.004 
13:05	58.4	58.4	58.4	49	39.3	1	4	248	0.00	30.002 
13:10	58.1	58.1	58.1	47	38.0	2	4	315	0.00	30.001 
13:15	58.6	58.6	58.6	49	39.5	2	4	248	0.00	30.001 
13:20	58.7	58.7	58.7	49	39.6	2	4	248	0.00	29.999 
13:25	58.9	58.9	58.9	47	38.7	1	4	248	0.00	29.996 
13:30	59.0	59.0	59.0	48	39.3	2	4	270	0.00	29.994 
13:35	59.2	59.2	59.2	48	39.5	1	5	270	0.00	29.991 
13:40	59.2	59.2	59.2	47	39.0	2	4	270	0.00	29.989 
13:45	59.2	59.2	59.2	48	39.5	1	3	248	0.00	29.986 
13:50	59.3	59.3	59.3	47	39.1	1	4	315	0.00	29.985 
13:55	59.6	59.6	59.6	46	38.8	1	3	248	0.00	29.985 
14:00	59.9	59.9	59.9	47	39.6	2	4	270	0.00	29.984 
14:05	59.9	59.9	59.9	46	39.1	1	2	270	0.00	29.984 
14:10	59.9	59.9	59.9	49	40.7	0	2	248	0.00	29.985 
14:15	60.2	60.2	60.2	46	39.3	2	5	248	0.00	29.985 
14:20	60.4	60.4	60.4	46	39.5	1	4	270	0.00	29.984 
14:25	60.2	60.2	60.2	45	38.8	1	3	270	0.00	29.984 
14:30	60.4	60.4	60.4	46	39.5	1	4	270	0.00	29.986 
14:35	60.2	60.2	60.2	45	38.8	2	4	248	0.00	29.985 
14:40	60.1	60.1	60.1	46	39.2	1	3	248	0.00	29.985 
14:45	60.2	60.2	60.2	47	39.9	1	3	270	0.00	29.983 
14:50	60.4	60.4	60.4	47	40.1	0	1	225	0.00	29.976 
14:55	60.5	60.5	60.5	46	39.6	1	4	292	0.00	29.976 
15:00	60.4	60.4	60.4	45	39.0	1	2	292	0.00	29.972 
15:05	60.1	60.1	60.1	46	39.2	0	2	292	0.00	29.973 
15:10	60.2	60.2	60.2	46	39.3	0	1	292	0.00	29.975 
15:15	60.5	60.5	60.5	46	39.6	0	1	292	0.00	29.982 
15:20	60.7	60.7	60.7	46	39.8	1	2	292	0.00	29.983 
15:25	60.4	60.4	60.4	45	39.0	1	3	292	0.00	29.985 
15:30	60.2	60.2	60.2	46	39.3	1	2	292	0.00	29.987 
15:35	60.1	60.1	60.1	46	39.2	1	3	315	0.00	29.987 
15:40	59.9	59.9	59.9	46	39.1	1	2	270	0.00	29.986 
15:45	59.9	59.9	59.9	47	39.6	1	3	315	0.00	29.987 
15:50	59.9	59.9	59.9	47	39.6	1	4	315	0.00	29.988 
15:55	59.8	59.8	59.8	46	39.0	1	3	292	0.00	29.992 
16:00	59.8	59.8	59.8	46	39.0	0	2	292	0.00	29.989 
16:05	59.9	59.9	59.9	47	39.6	1	4	270	0.00	29.987 
16:10	59.9	59.9	59.9	47	39.6	1	3	315	0.00	29.986 
16:15	59.6	59.6	59.6	47	39.3	1	3	315	0.00	29.984 
16:20	59.6	59.6	59.6	48	39.9	0	2	292	0.00	29.985 
16:25	59.8	59.8	59.8	49	40.6	0	3	315	0.00	29.984 
16:30	59.9	59.9	59.9	49	40.7	0	2	225	0.00	29.984 
16:35	59.9	59.9	59.9	48	40.2	1	3	315	0.00	29.985 
16:40	59.8	59.8	59.8	48	40.1	1	3	315	0.00	29.985 
16:45	59.6	59.6	59.6	49	40.4	1	3	338	0.00	29.986 
16:50	59.6	59.6	59.6	50	40.9	1	3	270	0.00	29.986 
16:55	59.5	59.5	59.5	50	40.8	1	3	270	0.00	29.986 
17:00	59.3	59.3	59.3	50	40.7	1	3	270	0.00	29.990 
17:05	59.2	59.2	59.2	49	40.0	1	2	270	0.00	29.987 
17:10	59.0	59.0	59.0	50	40.4	0	2	315	0.00	29.985 
17:15	58.9	58.9	58.9	51	40.8	1	3	315	0.00	29.986 
17:20	58.7	58.7	58.7	51	40.6	0	2	292	0.00	29.985 
17:25	58.4	58.4	58.4	53	41.3	0	2	292	0.00	29.983 
17:30	58.1	58.1	58.1	54	41.5	0	1	292	0.00	29.985 
17:35	57.6	57.6	57.6	54	41.1	0	1	292	0.00	29.986 
17:40	57.3	57.3	57.3	55	41.3	0	1	292	0.00	29.991 
17:45	57.0	57.0	57.0	55	41.0	0	1	292	0.00	29.987 
17:50	56.7	56.7	56.7	56	41.2	0	0	---	0.00	29.986 
17:55	56.5	56.5	56.5	58	41.9	0	0	---	0.00	29.987 
18:00	56.2	56.2	56.2	58	41.6	0	0	---	0.00	29.991 
18:05	55.7	55.7	55.7	59	41.6	0	0	---	0.00	30.002 
18:10	55.4	55.4	55.4	61	42.2	0	0	---	0.00	30.002 
18:15	55.3	55.3	55.3	62	42.5	0	0	---	0.00	30.003 
18:20	55.1	55.1	55.1	63	42.7	0	0	---	0.00	30.002 
18:25	55.0	55.0	55.0	63	42.6	0	0	---	0.00	29.998 
18:30	54.8	54.8	54.8	65	43.3	0	0	---	0.00	30.001 
18:35	54.7	54.7	54.7	65	43.2	0	0	---	0.00	30.004 
18:40	54.8	54.8	54.8	64	42.9	0	0	---	0.00	30.005 
18:45	55.0	55.0	55.0	64	43.0	0	0	---	0.00	30.005 
18:50	55.1	55.1	55.1	64	43.1	0	0	---	0.00	30.006 
18:55	55.1	55.1	55.1	63	42.7	0	0	---	0.00	30.006 
19:00	55.3	55.3	55.3	64	43.3	0	0	---	0.00	30.007 
19:05	55.3	55.3	55.3	64	43.3	0	0	---	0.00	30.003 
19:10	55.3	55.3	55.3	64	43.3	0	0	---	0.00	30.004 
19:15	55.3	55.3	55.3	64	43.3	0	0	---	0.00	30.000 
19:20	55.3	55.3	55.3	63	42.9	0	0	---	0.00	30.000 
19:25	55.3	55.3	55.3	63	42.9	0	0	---	0.00	30.000 
19:30	55.1	55.1	55.1	65	43.5	0	0	---	0.00	30.003 
19:35	55.1	55.1	55.1	64	43.1	0	0	---	0.00	30.008 
19:40	55.3	55.3	55.3	64	43.3	0	0	---	0.00	30.013 
19:45	55.3	55.3	55.3	64	43.3	0	0	---	0.00	30.014 
19:50	55.3	55.3	55.3	65	43.7	0	0	---	0.00	30.013 
19:55	55.3	55.3	55.3	66	44.1	0	0	---	0.00	30.012 
20:00	55.1	55.1	55.1	66	43.9	0	0	---	0.00	30.015 
20:05	55.1	55.1	55.1	66	43.9	0	0	---	0.00	30.011 
20:10	55.0	55.0	55.0	65	43.5	0	0	---	0.00	30.016 
20:15	54.8	54.8	54.8	66	43.7	0	0	---	0.00	30.018 
20:20	54.8	54.8	54.8	67	44.1	0	0	---	0.00	30.018 
20:25	54.7	54.7	54.7	68	44.3	0	0	---	0.00	30.014 
20:30	54.5	54.5	54.5	68	44.2	0	0	---	0.00	30.014 
20:35	54.4	54.4	54.4	68	44.1	0	0	---	0.00	30.017 
20:40	54.1	54.1	54.1	68	43.8	0	0	---	0.00	30.023 
20:45	53.9	53.9	53.9	68	43.6	0	0	---	0.00	30.023 
20:50	53.6	53.6	53.6	68	43.3	0	0	---	0.00	30.021 
20:55	53.5	53.5	53.5	69	43.6	0	0	---	0.00	30.018 
21:00	53.2	53.2	53.2	71	44.0	0	0	---	0.00	30.021 
21:05	53.1	53.1	53.1	72	44.3	0	0	---	0.00	30.017 
21:10	52.9	52.9	52.9	72	44.1	0	0	---	0.00	30.019 
21:15	52.9	52.9	52.9	73	44.5	0	0	---	0.00	30.022 
21:20	52.8	52.8	52.8	74	44.7	0	0	---	0.00	30.022 
21:25	52.8	52.8	52.8	75	45.1	0	0	---	0.00	30.021 
21:30	52.8	52.8	52.8	75	45.1	0	0	---	0.00	30.022 
21:35	52.8	52.8	52.8	75	45.1	0	0	---	0.00	30.023 
21:40	52.6	52.6	52.6	75	44.9	0	0	---	0.00	30.026 
21:45	52.6	52.6	52.6	75	44.9	0	0	---	0.00	30.028 
21:50	52.5	52.5	52.5	76	45.2	0	0	---	0.00	30.027 
21:55	52.5	52.5	52.5	77	45.5	0	0	---	0.00	30.029 
22:00	52.3	52.3	52.3	77	45.3	0	0	---	0.00	30.031 
22:05	52.3	52.3	52.3	77	45.3	0	0	---	0.00	30.031 
22:10	52.3	52.3	52.3	77	45.3	0	0	---	0.00	30.031 
22:15	52.3	52.3	52.3	78	45.6	0	0	---	0.00	30.034 
22:20	52.3	52.3	52.3	78	45.6	0	0	---	0.00	30.032 
22:25	52.3	52.3	52.3	79	46.0	0	0	---	0.00	30.032 
22:30	52.3	52.3	52.3	79	46.0	0	0	---	0.00	30.031 
22:35	52.3	52.3	52.3	79	46.0	0	0	---	0.00	30.033 
22:40	52.3	52.3	52.3	79	46.0	0	0	---	0.00	30.033 
22:45	52.3	52.3	52.3	78	45.6	0	0	---	0.00	30.034 
22:50	52.3	52.3	52.3	78	45.6	0	0	---	0.00	30.034 
22:55	52.3	52.3	52.3	79	46.0	0	0	---	0.00	30.037 
23:00	52.3	52.3	52.3	79	46.0	0	0	---	0.00	30.038 
23:05	52.5	52.5	52.5	79	46.2	0	0	---	0.00	30.034 
23:10	52.5	52.5	52.5	79	46.2	0	0	---	0.00	30.035 
23:15	52.3	52.3	52.3	79	46.0	0	0	---	0.00	30.038 
23:20	52.3	52.3	52.3	80	46.3	0	0	---	0.00	30.042 
23:25	52.2	52.2	52.2	80	46.2	0	0	---	0.00	30.041 
23:30	52.2	52.2	52.2	80	46.2	0	0	---	0.00	30.042 
23:35	52.0	52.0	52.0	80	46.0	0	0	---	0.00	30.041 
23:40	52.0	52.0	52.0	81	46.4	0	0	---	0.00	30.040 
23:45	51.9	51.9	51.9	81	46.3	0	0	---	0.00	30.042 
23:50	51.9	51.9	51.9	81	46.3	0	0	---	0.00	30.038 
23:55	51.9	51.9	51.9	81	46.3	0	0	---	0.00	30.040 

CoCoRaHS
IN-AL-39
A2 Web Hosting
Creative Commons License
GoDaddy
Look for:

loaded 2017-12-12 14:42:29 • last modified 2010-11-18 10:43:29
Privacy PolicyDisclaimer
• wx.awcolley.com is powered by PmWiki v.2002016 •
• all content (unless otherwise noted) © 2017 A W Colley